createdAt,value
2018-04-15T00:00:10.533Z,69.2
2018-04-15T00:01:01.176Z,69.2
2018-04-15T00:01:51.246Z,69.2
2018-04-15T00:02:40.718Z,69.2
2018-04-15T00:03:31.093Z,69.2
2018-04-15T00:04:20.859Z,69.2
2018-04-15T00:05:11.485Z,69.1
2018-04-15T00:06:00.963Z,69.1
2018-04-15T00:06:51.296Z,69.1
2018-04-15T00:07:41.147Z,69.1
2018-04-15T00:08:31.745Z,69.1
2018-04-15T00:09:21.503Z,69.1
2018-04-15T00:10:11.583Z,69.1
2018-04-15T00:11:01.929Z,69.1
2018-04-15T00:11:51.446Z,69.1
2018-04-15T00:12:42.030Z,69.1
2018-04-15T00:13:32.309Z,69.1
2018-04-15T00:14:21.653Z,69.1
2018-04-15T00:15:11.957Z,69.1
2018-04-15T00:16:02.352Z,69.1
2018-04-15T00:16:52.338Z,69.1
2018-04-15T00:17:42.418Z,69.1
2018-04-15T00:18:32.478Z,69
2018-04-15T00:19:21.992Z,69
2018-04-15T00:20:12.353Z,69
2018-04-15T00:21:02.177Z,69
2018-04-15T00:21:51.913Z,69
2018-04-15T00:22:42.285Z,69
2018-04-15T00:23:32.215Z,68.9
2018-04-15T00:24:21.923Z,68.9
2018-04-15T00:25:12.436Z,68.9
2018-04-15T00:26:02.524Z,68.9
2018-04-15T00:26:52.593Z,68.9
2018-04-15T00:27:42.833Z,68.9
2018-04-15T00:28:32.986Z,68.9
2018-04-15T00:29:23.341Z,68.9
2018-04-15T00:30:12.831Z,68.9
2018-04-15T00:31:03.441Z,68.9
2018-04-15T00:31:52.943Z,68.9
2018-04-15T00:32:42.995Z,68.9
2018-04-15T00:33:32.876Z,68.9
2018-04-15T00:34:23.726Z,68.9
2018-04-15T00:35:12.983Z,68.9
2018-04-15T00:36:03.111Z,68.9
2018-04-15T00:36:52.555Z,68.8
2018-04-15T00:37:43.196Z,68.8
2018-04-15T00:38:32.694Z,68.8
2018-04-15T00:39:23.658Z,68.8
2018-04-15T00:40:13.663Z,68.8
2018-04-15T00:41:03.441Z,68.8
2018-04-15T00:41:53.529Z,68.8
2018-04-15T00:42:44.338Z,68.8
2018-04-15T00:43:34.412Z,68.8
2018-04-15T00:44:23.717Z,68.8
2018-04-15T00:45:14.509Z,68.8
2018-04-15T00:46:04.311Z,68.8
2018-04-15T00:46:54.631Z,68.8
2018-04-15T00:47:44.713Z,68.8
2018-04-15T00:48:34.491Z,68.8
2018-04-15T00:49:24.566Z,68.7
2018-04-15T00:50:14.639Z,68.7
2018-04-15T00:51:04.980Z,68.7
2018-04-15T00:51:54.763Z,68.7
2018-04-15T00:52:44.801Z,68.7
2018-04-15T00:53:35.150Z,68.7
2018-04-15T00:54:25.213Z,68.6
2018-04-15T00:55:14.477Z,68.6
2018-04-15T00:56:04.534Z,68.6
2018-04-15T00:56:55.413Z,68.6
2018-04-15T00:57:44.354Z,68.6
2018-04-15T00:58:35.540Z,68.6
2018-04-15T00:59:24.809Z,68.6
2018-04-15T01:00:15.700Z,68.6
2018-04-15T01:01:05.496Z,68.6
2018-04-15T01:01:55.498Z,68.6
2018-04-15T01:02:45.883Z,68.6
2018-04-15T01:03:35.668Z,68.6
2018-04-15T01:04:25.993Z,68.6
2018-04-15T01:05:15.766Z,68.6
2018-04-15T01:06:06.138Z,68.6
2018-04-15T01:06:55.923Z,68.5
2018-04-15T01:07:45.965Z,68.5
2018-04-15T01:08:36.334Z,68.5
2018-04-15T01:09:25.824Z,68.5
2018-04-15T01:10:16.159Z,68.5
2018-04-15T01:11:05.948Z,68.5
2018-04-15T01:11:56.281Z,68.5
2018-04-15T01:12:46.343Z,68.5
2018-04-15T01:13:36.740Z,68.4
2018-04-15T01:14:26.191Z,68.4
2018-04-15T01:15:16.588Z,68.4
2018-04-15T01:16:06.151Z,68.4
2018-04-15T01:16:56.228Z,68.4
2018-04-15T01:17:45.955Z,68.4
2018-04-15T01:18:36.300Z,68.4
2018-04-15T01:19:26.138Z,68.4
2018-04-15T01:20:16.186Z,68.4
2018-04-15T01:21:06.480Z,68.4
2018-04-15T01:21:57.319Z,68.4
2018-04-15T01:22:46.833Z,68.4
2018-04-15T01:23:36.925Z,68.4
2018-04-15T01:24:27.265Z,68.4
2018-04-15T01:25:17.665Z,68.4
2018-04-15T01:26:07.400Z,68.4
2018-04-15T01:26:57.737Z,68.3
2018-04-15T01:27:47.192Z,68.3
2018-04-15T01:28:37.828Z,68.3
2018-04-15T01:29:27.901Z,68.3
2018-04-15T01:30:17.724Z,68.3
2018-04-15T01:31:07.490Z,68.3
2018-04-15T01:31:58.079Z,68.3
2018-04-15T01:32:47.909Z,68.3
2018-04-15T01:33:37.432Z,68.3
2018-04-15T01:34:27.482Z,68.3
2018-04-15T01:35:18.100Z,68.3
2018-04-15T01:36:08.505Z,68.3
2018-04-15T01:36:58.502Z,68.3
2018-04-15T01:37:48.286Z,68.3
2018-04-15T01:38:37.787Z,68.2
2018-04-15T01:39:27.845Z,68.2
2018-04-15T01:40:18.709Z,68.2
2018-04-15T01:41:08.808Z,68.2
2018-04-15T01:41:58.329Z,68.2
2018-04-15T01:42:48.649Z,68.2
2018-04-15T01:43:38.441Z,68.2
2018-04-15T01:44:28.821Z,68.2
2018-04-15T01:45:18.579Z,68.1
2018-04-15T01:46:08.633Z,68.1
2018-04-15T01:46:58.702Z,68.1
2018-04-15T01:47:49.067Z,68.1
2018-04-15T01:48:38.810Z,68.1
2018-04-15T01:49:29.446Z,68.1
2018-04-15T01:50:18.388Z,68.1
2018-04-15T01:51:08.755Z,68.1
2018-04-15T01:51:59.358Z,68.1
2018-04-15T01:52:49.432Z,68.1
2018-04-15T01:53:39.015Z,68.1
2018-04-15T01:54:29.555Z,68.1
2018-04-15T01:55:19.921Z,68.1
2018-04-15T01:56:09.125Z,68
2018-04-15T01:57:00.029Z,68
2018-04-15T01:57:50.069Z,68
2018-04-15T01:58:39.586Z,68
2018-04-15T01:59:29.622Z,68
2018-04-15T02:00:20.273Z,68
2018-04-15T02:01:10.068Z,68
2018-04-15T02:01:59.970Z,68
2018-04-15T02:02:49.975Z,68
2018-04-15T02:03:39.745Z,67.9
2018-04-15T02:04:30.110Z,67.9
2018-04-15T02:05:19.851Z,67.9
2018-04-15T02:06:10.204Z,67.9
2018-04-15T02:07:00.016Z,67.9
2018-04-15T02:07:50.096Z,67.9
2018-04-15T02:08:40.438Z,67.9
2018-04-15T02:09:30.196Z,67.9
2018-04-15T02:10:20.726Z,67.9
2018-04-15T02:11:11.099Z,67.9
2018-04-15T02:12:00.339Z,67.9
2018-04-15T02:12:50.935Z,67.9
2018-04-15T02:13:40.747Z,67.9
2018-04-15T02:14:31.133Z,67.9
2018-04-15T02:15:20.582Z,67.9
2018-04-15T02:16:11.454Z,67.8
2018-04-15T02:17:01.529Z,67.9
2018-04-15T02:17:51.042Z,67.8
2018-04-15T02:18:41.400Z,67.8
2018-04-15T02:19:31.184Z,67.8
2018-04-15T02:20:21.542Z,67.8
2018-04-15T02:21:11.041Z,67.8
2018-04-15T02:22:01.092Z,67.8
2018-04-15T02:22:51.980Z,67.8
2018-04-15T02:23:42.033Z,67.8
2018-04-15T02:24:31.851Z,67.8
2018-04-15T02:25:21.644Z,67.8
2018-04-15T02:26:12.235Z,67.8
2018-04-15T02:27:02.294Z,67.8
2018-04-15T02:27:51.797Z,67.8
2018-04-15T02:28:42.405Z,67.8
2018-04-15T02:29:32.197Z,67.7
2018-04-15T02:30:22.004Z,67.7
2018-04-15T02:31:12.342Z,67.7
2018-04-15T02:32:02.162Z,67.7
2018-04-15T02:32:52.745Z,67.7
2018-04-15T02:33:42.558Z,67.6
2018-04-15T02:34:32.894Z,67.6
2018-04-15T02:35:22.394Z,67.7
2018-04-15T02:36:12.769Z,67.6
2018-04-15T02:37:02.813Z,67.6
2018-04-15T02:37:52.587Z,67.6
2018-04-15T02:38:43.259Z,67.6
2018-04-15T02:39:32.441Z,67.6
2018-04-15T02:40:23.363Z,67.6
2018-04-15T02:41:12.829Z,67.6
2018-04-15T02:42:02.929Z,67.6
2018-04-15T02:42:53.259Z,67.6
2018-04-15T02:43:43.319Z,67.6
2018-04-15T02:44:33.371Z,67.6
2018-04-15T02:45:23.466Z,67.6
2018-04-15T02:46:13.248Z,67.6
2018-04-15T02:47:03.579Z,67.6
2018-04-15T02:47:53.392Z,67.5
2018-04-15T02:48:43.985Z,67.5
2018-04-15T02:49:32.923Z,67.5
2018-04-15T02:50:23.825Z,67.5
2018-04-15T02:51:14.163Z,67.5
2018-04-15T02:52:03.950Z,67.5
2018-04-15T02:52:53.451Z,67.5
2018-04-15T02:53:43.543Z,67.4
2018-04-15T02:54:34.411Z,67.4
2018-04-15T02:55:24.513Z,67.4
2018-04-15T02:56:14.269Z,67.4
2018-04-15T02:57:04.342Z,67.4
2018-04-15T02:57:54.098Z,67.4
2018-04-15T02:58:44.759Z,67.4
2018-04-15T02:59:34.228Z,67.4
2018-04-15T03:00:24.306Z,67.4
2018-04-15T03:01:14.938Z,67.4
2018-04-15T03:02:04.724Z,67.4
2018-04-15T03:02:54.813Z,67.4
2018-04-15T03:03:44.842Z,67.4
2018-04-15T03:04:34.347Z,67.4
2018-04-15T03:05:25.260Z,67.4
2018-04-15T03:06:15.323Z,67.3
2018-04-15T03:07:04.521Z,67.3
2018-04-15T03:07:55.431Z,67.3
2018-04-15T03:08:45.232Z,67.3
2018-04-15T03:09:35.539Z,67.3
2018-04-15T03:10:25.636Z,67.3
2018-04-15T03:11:15.139Z,67.3
2018-04-15T03:12:04.966Z,67.3
2018-04-15T03:12:55.790Z,67.3
2018-04-15T03:13:45.343Z,67.3
2018-04-15T03:14:35.661Z,67.3
2018-04-15T03:15:25.706Z,67.3
2018-04-15T03:16:15.766Z,67.3
2018-04-15T03:17:06.129Z,67.3
2018-04-15T03:17:55.634Z,67.3
2018-04-15T03:18:45.994Z,67.2
2018-04-15T03:19:36.116Z,67.2
2018-04-15T03:20:26.387Z,67.2
2018-04-15T03:21:15.904Z,67.2
2018-04-15T03:22:06.263Z,67.2
2018-04-15T03:22:55.987Z,67.2
2018-04-15T03:23:46.658Z,67.2
2018-04-15T03:24:36.685Z,67.1
2018-04-15T03:25:26.933Z,67.1
2018-04-15T03:26:16.562Z,67.1
2018-04-15T03:27:06.605Z,67.1
2018-04-15T03:27:56.688Z,67.1
2018-04-15T03:28:47.065Z,67.1
2018-04-15T03:29:36.526Z,67.1
2018-04-15T03:30:26.942Z,67.1
2018-04-15T03:31:16.640Z,67.1
2018-04-15T03:32:06.746Z,67.1
2018-04-15T03:32:56.585Z,67.1
2018-04-15T03:33:47.440Z,67.1
2018-04-15T03:34:37.176Z,67.1
2018-04-15T03:35:26.970Z,67.1
2018-04-15T03:36:17.625Z,67.1
2018-04-15T03:37:07.638Z,67.1
2018-04-15T03:37:57.172Z,67.1
2018-04-15T03:38:47.752Z,67
2018-04-15T03:39:37.828Z,67
2018-04-15T03:40:27.624Z,67
2018-04-15T03:41:17.133Z,67
2018-04-15T03:42:08.052Z,67
2018-04-15T03:42:58.112Z,67
2018-04-15T03:43:47.911Z,66.9
2018-04-15T03:44:37.958Z,66.9
2018-04-15T03:45:27.467Z,66.9
2018-04-15T03:46:18.032Z,66.9
2018-04-15T03:47:07.852Z,66.9
2018-04-15T03:47:57.925Z,66.9
2018-04-15T03:48:47.419Z,66.9
2018-04-15T03:49:38.336Z,66.9
2018-04-15T03:50:28.394Z,66.9
2018-04-15T03:51:18.202Z,66.9
2018-04-15T03:52:08.521Z,66.9
2018-04-15T03:52:58.863Z,66.9
2018-04-15T03:53:48.902Z,66.9
2018-04-15T03:54:38.720Z,66.9
2018-04-15T03:55:27.675Z,66.9
2018-04-15T03:56:18.818Z,66.9
2018-04-15T03:57:09.191Z,66.8
2018-04-15T03:57:58.421Z,66.8
2018-04-15T03:58:49.045Z,66.8
2018-04-15T03:59:39.094Z,66.8
2018-04-15T04:00:29.453Z,66.8
2018-04-15T04:01:19.223Z,66.8
2018-04-15T04:02:09.373Z,66.8
2018-04-15T04:02:59.339Z,66.8
2018-04-15T04:03:49.417Z,66.8
2018-04-15T04:04:39.471Z,66.8
2018-04-15T04:05:29.817Z,66.8
2018-04-15T04:06:19.579Z,66.8
2018-04-15T04:07:09.422Z,66.8
2018-04-15T04:07:59.741Z,66.8
2018-04-15T04:08:49.499Z,66.8
2018-04-15T04:09:40.130Z,66.7
2018-04-15T04:10:30.220Z,66.7
2018-04-15T04:11:20.248Z,66.7
2018-04-15T04:12:10.308Z,66.7
2018-04-15T04:12:59.827Z,66.7
2018-04-15T04:13:50.150Z,66.7
2018-04-15T04:14:39.963Z,66.7
2018-04-15T04:15:30.010Z,66.7
2018-04-15T04:16:20.089Z,66.7
2018-04-15T04:17:10.146Z,66.6
2018-04-15T04:18:00.798Z,66.6
2018-04-15T04:18:50.268Z,66.6
2018-04-15T04:19:40.677Z,66.6
2018-04-15T04:20:31.331Z,66.6
2018-04-15T04:21:20.468Z,66.6
2018-04-15T04:22:11.077Z,66.6
2018-04-15T04:23:01.165Z,66.6
2018-04-15T04:23:50.932Z,66.6
2018-04-15T04:24:41.254Z,66.6
2018-04-15T04:25:31.069Z,66.6
2018-04-15T04:26:21.387Z,66.6
2018-04-15T04:27:10.909Z,66.6
2018-04-15T04:28:00.965Z,66.6
2018-04-15T04:28:50.764Z,66.6
2018-04-15T04:29:41.665Z,66.5
2018-04-15T04:30:31.725Z,66.5
2018-04-15T04:31:21.814Z,66.5
2018-04-15T04:32:11.595Z,66.5
2018-04-15T04:33:01.694Z,66.5
2018-04-15T04:33:51.982Z,66.5
2018-04-15T04:34:41.224Z,66.5
2018-04-15T04:35:32.112Z,66.5
2018-04-15T04:36:21.885Z,66.5
2018-04-15T04:37:11.704Z,66.4
2018-04-15T04:38:02.043Z,66.4
2018-04-15T04:38:51.521Z,66.4
2018-04-15T04:39:42.358Z,66.4
2018-04-15T04:40:32.211Z,66.4
2018-04-15T04:41:22.284Z,66.4
2018-04-15T04:42:12.043Z,66.4
2018-04-15T04:43:02.686Z,66.4
2018-04-15T04:43:52.168Z,66.4
2018-04-15T04:44:42.309Z,66.4
2018-04-15T04:45:32.036Z,66.4
2018-04-15T04:46:22.964Z,66.4
2018-04-15T04:47:12.999Z,66.4
2018-04-15T04:48:03.059Z,66.4
2018-04-15T04:48:52.863Z,66.3
2018-04-15T04:49:42.671Z,66.3
2018-04-15T04:50:33.243Z,66.3
2018-04-15T04:51:23.048Z,66.3
2018-04-15T04:52:13.428Z,66.3
2018-04-15T04:53:02.896Z,66.3
2018-04-15T04:53:52.670Z,66.3
2018-04-15T04:54:43.325Z,66.3
2018-04-15T04:55:33.629Z,66.3
2018-04-15T04:56:23.426Z,66.3
2018-04-15T04:57:13.750Z,66.3
2018-04-15T04:58:03.813Z,66.3
2018-04-15T04:58:53.906Z,66.2
2018-04-15T04:59:43.654Z,66.2
2018-04-15T05:00:33.476Z,66.2
2018-04-15T05:01:23.819Z,66.2
2018-04-15T05:02:14.134Z,66.2
2018-04-15T05:03:03.925Z,66.1
2018-04-15T05:03:54.007Z,66.1
2018-04-15T05:04:44.094Z,66.1
2018-04-15T05:05:34.399Z,66.1
2018-04-15T05:06:24.452Z,66.1
2018-04-15T05:07:14.239Z,66.1
2018-04-15T05:08:03.779Z,66.1
2018-04-15T05:08:54.138Z,66.1
2018-04-15T05:09:43.925Z,66.1
2018-04-15T05:10:34.614Z,66.1
2018-04-15T05:11:23.884Z,66.1
2018-04-15T05:12:13.947Z,66.1
2018-04-15T05:13:05.020Z,66.1
2018-04-15T05:13:54.758Z,66
2018-04-15T05:14:44.535Z,66
2018-04-15T05:15:34.667Z,66
2018-04-15T05:16:25.204Z,66
2018-04-15T05:17:15.595Z,66
2018-04-15T05:18:04.532Z,66
2018-04-15T05:18:55.180Z,66
2018-04-15T05:19:44.422Z,66
2018-04-15T05:20:34.983Z,66
2018-04-15T05:21:25.307Z,65.9
2018-04-15T05:22:14.853Z,65.9
2018-04-15T05:23:43.997Z,65.9
2018-04-15T05:24:34.009Z,65.9
2018-04-15T05:25:24.355Z,65.9
2018-04-15T05:26:13.636Z,65.9
2018-04-15T05:27:04.489Z,65.9
2018-04-15T05:27:54.251Z,65.9
2018-04-15T05:28:44.616Z,65.9
2018-04-15T05:29:34.696Z,65.9
2018-04-15T05:30:24.739Z,65.8
2018-04-15T05:31:14.281Z,65.8
2018-04-15T05:32:04.864Z,65.8
2018-04-15T05:32:54.661Z,65.8
2018-04-15T05:33:44.709Z,65.8
2018-04-15T05:34:34.519Z,65.8
2018-04-15T05:35:25.110Z,65.8
2018-04-15T05:36:15.158Z,65.8
2018-04-15T05:37:04.668Z,65.8
2018-04-15T05:37:55.290Z,65.8
2018-04-15T05:38:44.805Z,65.8
2018-04-15T05:39:35.167Z,65.8
2018-04-15T05:40:25.461Z,65.8
2018-04-15T05:41:15.523Z,65.8
2018-04-15T05:42:05.664Z,65.7
2018-04-15T05:42:55.695Z,65.7
2018-04-15T05:43:45.749Z,65.7
2018-04-15T05:44:35.550Z,65.7
2018-04-15T05:45:25.625Z,65.7
2018-04-15T05:46:15.168Z,65.7
2018-04-15T05:47:05.443Z,65.7
2018-04-15T05:47:55.495Z,65.7
2018-04-15T05:48:45.868Z,65.6
2018-04-15T05:49:35.928Z,65.6
2018-04-15T05:50:25.417Z,65.6
2018-04-15T05:51:15.454Z,65.6
2018-04-15T05:52:05.845Z,65.6
2018-04-15T05:52:56.155Z,65.6
2018-04-15T05:53:46.504Z,65.6
2018-04-15T05:54:35.987Z,65.6
2018-04-15T05:55:26.075Z,65.6
2018-04-15T05:56:15.390Z,65.6
2018-04-15T05:57:05.922Z,65.6
2018-04-15T05:57:56.867Z,65.6
2018-04-15T05:58:46.946Z,65.5
2018-04-15T05:59:37.074Z,65.5
2018-04-15T06:00:26.714Z,65.5
2018-04-15T06:01:16.558Z,65.5
2018-04-15T06:02:06.848Z,65.5
2018-04-15T06:02:56.672Z,65.5
2018-04-15T06:03:46.982Z,65.4
2018-04-15T06:04:37.341Z,65.4
2018-04-15T06:05:27.108Z,65.4
2018-04-15T06:06:16.616Z,65.4
2018-04-15T06:07:07.249Z,65.4
2018-04-15T06:07:57.036Z,65.4
2018-04-15T06:08:47.620Z,65.4
2018-04-15T06:09:37.428Z,65.4
2018-04-15T06:10:27.224Z,65.4
2018-04-15T06:11:17.596Z,65.3
2018-04-15T06:12:07.601Z,65.3
2018-04-15T06:12:57.415Z,65.3
2018-04-15T06:13:48.040Z,65.3
2018-04-15T06:14:37.267Z,65.3
2018-04-15T06:15:28.143Z,65.3
2018-04-15T06:16:17.918Z,65.3
2018-04-15T06:17:08.276Z,65.3
2018-04-15T06:17:57.798Z,65.3
2018-04-15T06:18:48.425Z,65.3
2018-04-15T06:19:38.187Z,65.3
2018-04-15T06:20:27.981Z,65.3
2018-04-15T06:21:18.060Z,65.3
2018-04-15T06:22:08.657Z,65.3
2018-04-15T06:22:58.438Z,65.3
2018-04-15T06:23:48.524Z,65.3
2018-04-15T06:24:38.716Z,65.2
2018-04-15T06:25:28.952Z,65.2
2018-04-15T06:26:18.745Z,65.2
2018-04-15T06:27:08.198Z,65.2
2018-04-15T06:27:58.529Z,65.2
2018-04-15T06:28:48.928Z,65.1
2018-04-15T06:29:38.665Z,65.1
2018-04-15T06:30:28.844Z,65.1
2018-04-15T06:31:19.110Z,65.1
2018-04-15T06:32:09.439Z,65.1
2018-04-15T06:32:59.037Z,65.1
2018-04-15T06:33:49.288Z,65.1
2018-04-15T06:34:39.143Z,65.1
2018-04-15T06:35:29.114Z,65.1
2018-04-15T06:36:19.480Z,65.1
2018-04-15T06:37:09.256Z,65.1
2018-04-15T06:37:59.294Z,65.1
2018-04-15T06:38:49.172Z,65.1
2018-04-15T06:39:39.619Z,65.1
2018-04-15T06:40:29.799Z,65.1
2018-04-15T06:41:19.299Z,65
2018-04-15T06:42:09.675Z,65
2018-04-15T06:42:59.996Z,65
2018-04-15T06:43:49.193Z,65
2018-04-15T06:44:40.117Z,65
2018-04-15T06:45:29.879Z,65
2018-04-15T06:46:20.244Z,65
2018-04-15T06:47:10.284Z,64.9
2018-04-15T06:48:00.631Z,65
2018-04-15T06:48:50.129Z,64.9
2018-04-15T06:49:40.235Z,64.9
2018-04-15T06:50:30.876Z,64.9
2018-04-15T06:51:20.858Z,64.9
2018-04-15T06:52:10.394Z,64.9
2018-04-15T06:53:00.727Z,64.9
2018-04-15T06:53:51.030Z,64.9
2018-04-15T06:54:40.868Z,64.9
2018-04-15T06:55:30.624Z,64.9
2018-04-15T06:56:21.315Z,64.9
2018-04-15T06:57:11.345Z,64.9
2018-04-15T06:58:01.086Z,64.9
2018-04-15T06:58:50.896Z,64.9
2018-04-15T06:59:41.268Z,64.9
2018-04-15T07:00:31.279Z,64.8
2018-04-15T07:01:21.627Z,64.8
2018-04-15T07:02:11.132Z,64.8
2018-04-15T07:03:01.194Z,64.8
2018-04-15T07:03:50.717Z,64.8
2018-04-15T07:04:41.340Z,64.8
2018-04-15T07:05:31.967Z,64.8
2018-04-15T07:06:20.925Z,64.8
2018-04-15T07:07:11.589Z,64.8
2018-04-15T07:08:01.669Z,64.8
2018-04-15T07:08:51.739Z,64.8
2018-04-15T07:09:42.658Z,64.8
2018-04-15T07:10:32.309Z,64.7
2018-04-15T07:11:21.649Z,64.8
2018-04-15T07:12:12.514Z,64.7
2018-04-15T07:13:02.245Z,64.7
2018-04-15T07:13:51.749Z,64.7
2018-04-15T07:14:42.373Z,64.7
2018-04-15T07:15:32.712Z,64.7
2018-04-15T07:16:22.535Z,64.7
2018-04-15T07:17:12.582Z,64.7
2018-04-15T07:18:02.388Z,64.7
2018-04-15T07:18:52.956Z,64.6
2018-04-15T07:19:42.736Z,64.6
2018-04-15T07:20:32.508Z,64.6
2018-04-15T07:21:22.614Z,64.6
2018-04-15T07:22:12.404Z,64.6
2018-04-15T07:23:02.532Z,64.6
2018-04-15T07:23:53.415Z,64.6
2018-04-15T07:24:42.775Z,64.6
2018-04-15T07:25:33.241Z,64.6
2018-04-15T07:26:23.592Z,64.6
2018-04-15T07:27:13.600Z,64.6
2018-04-15T07:28:03.174Z,64.6
2018-04-15T07:28:53.784Z,64.5
2018-04-15T07:29:42.959Z,64.6
2018-04-15T07:30:33.396Z,64.5
2018-04-15T07:31:23.681Z,64.5
2018-04-15T07:32:13.719Z,64.5
2018-04-15T07:33:03.231Z,64.5
2018-04-15T07:33:53.586Z,64.5
2018-04-15T07:34:43.929Z,64.5
2018-04-15T07:35:33.680Z,64.5
2018-04-15T07:36:23.907Z,64.4
2018-04-15T07:37:14.352Z,64.5
2018-04-15T07:38:04.158Z,64.4
2018-04-15T07:38:53.761Z,64.4
2018-04-15T07:39:44.577Z,64.4
2018-04-15T07:40:34.630Z,64.4
2018-04-15T07:41:24.723Z,64.4
2018-04-15T07:42:14.211Z,64.4
2018-04-15T07:43:04.009Z,64.4
2018-04-15T07:43:54.332Z,64.4
2018-04-15T07:44:44.109Z,64.4
2018-04-15T07:45:35.012Z,64.4
2018-04-15T07:46:25.185Z,64.4
2018-04-15T07:47:14.591Z,64.4
2018-04-15T07:48:04.975Z,64.4
2018-04-15T07:48:55.272Z,64.4
2018-04-15T07:49:45.103Z,64.4
2018-04-15T07:50:35.674Z,64.3
2018-04-15T07:51:25.455Z,64.3
2018-04-15T07:52:15.541Z,64.3
2018-04-15T07:53:05.332Z,64.3
2018-04-15T07:53:55.667Z,64.3
2018-04-15T07:54:45.474Z,64.3
2018-04-15T07:55:35.516Z,64.3
2018-04-15T07:56:25.849Z,64.3
2018-04-15T07:57:15.634Z,64.3
2018-04-15T07:58:05.448Z,64.3
2018-04-15T07:58:56.040Z,64.3
2018-04-15T07:59:45.831Z,64.3
2018-04-15T08:00:35.902Z,64.3
2018-04-15T08:01:26.234Z,64.3
2018-04-15T08:02:16.091Z,64.3
2018-04-15T08:03:05.830Z,64.2
2018-04-15T08:03:56.429Z,64.2
2018-04-15T08:04:46.488Z,64.2
2018-04-15T08:05:36.287Z,64.2
2018-04-15T08:06:26.359Z,64.2
2018-04-15T08:07:16.150Z,64.2
2018-04-15T08:08:06.531Z,64.2
2018-04-15T08:08:56.549Z,64.2
2018-04-15T08:09:46.367Z,64.1
2018-04-15T08:10:36.956Z,64.1
2018-04-15T08:11:26.732Z,64.1
2018-04-15T08:12:16.228Z,64.1
2018-04-15T08:13:07.154Z,64.1
2018-04-15T08:13:57.238Z,64.1
2018-04-15T08:14:46.731Z,64.1
2018-04-15T08:15:37.342Z,64.1
2018-04-15T08:16:27.129Z,64.1
2018-04-15T08:17:17.704Z,64.1
2018-04-15T08:18:07.261Z,64.1
2018-04-15T08:18:57.606Z,64.1
2018-04-15T08:19:46.901Z,64.1
2018-04-15T08:20:37.491Z,64.1
2018-04-15T08:21:27.300Z,64
2018-04-15T08:22:17.285Z,64.1
2018-04-15T08:23:07.078Z,64
2018-04-15T08:23:57.423Z,64
2018-04-15T08:24:48.048Z,64
2018-04-15T08:25:38.132Z,64
2018-04-15T08:26:28.165Z,64
2018-04-15T08:27:17.985Z,64
2018-04-15T08:28:08.350Z,64
2018-04-15T08:28:58.385Z,64
2018-04-15T08:29:47.591Z,64
2018-04-15T08:30:38.492Z,63.9
2018-04-15T08:31:28.544Z,63.9
2018-04-15T08:32:18.620Z,63.9
2018-04-15T08:33:08.200Z,63.9
2018-04-15T08:33:58.556Z,63.9
2018-04-15T08:34:48.367Z,63.9
2018-04-15T08:35:38.606Z,63.9
2018-04-15T08:36:28.562Z,63.9
2018-04-15T08:37:18.434Z,63.9
2018-04-15T08:38:09.060Z,63.9
2018-04-15T08:38:58.842Z,63.9
2018-04-15T08:39:49.187Z,63.9
2018-04-15T08:40:39.001Z,63.8
2018-04-15T08:41:29.351Z,63.9
2018-04-15T08:42:18.930Z,63.9
2018-04-15T08:43:08.666Z,63.8
2018-04-15T08:43:59.528Z,63.8
2018-04-15T08:44:49.586Z,63.8
2018-04-15T08:45:39.682Z,63.8
2018-04-15T08:46:29.715Z,63.8
2018-04-15T08:47:19.829Z,63.8
2018-04-15T08:48:09.322Z,63.8
2018-04-15T08:48:59.641Z,63.8
2018-04-15T08:49:49.727Z,63.8
2018-04-15T08:50:38.934Z,63.8
2018-04-15T08:51:29.551Z,63.8
2018-04-15T08:52:19.911Z,63.8
2018-04-15T08:53:09.668Z,63.8
2018-04-15T08:54:00.299Z,63.8
2018-04-15T08:54:49.805Z,63.8
2018-04-15T08:55:40.165Z,63.8
2018-04-15T08:56:30.228Z,63.7
2018-04-15T08:57:19.836Z,63.7
2018-04-15T08:58:10.113Z,63.7
2018-04-15T08:59:00.406Z,63.7
2018-04-15T08:59:50.768Z,63.7
2018-04-15T09:00:40.515Z,63.7
2018-04-15T09:01:30.894Z,63.7
2018-04-15T09:02:20.668Z,63.6
2018-04-15T09:03:10.565Z,63.6
2018-04-15T09:04:00.535Z,63.6
2018-04-15T09:04:50.588Z,63.6
2018-04-15T09:05:40.668Z,63.6
2018-04-15T09:06:30.452Z,63.6
2018-04-15T09:07:21.052Z,63.6
2018-04-15T09:08:10.869Z,63.6
2018-04-15T09:09:01.022Z,63.6
2018-04-15T09:09:51.756Z,63.6
2018-04-15T09:10:41.026Z,63.6
2018-04-15T09:11:31.380Z,63.6
2018-04-15T09:12:20.604Z,63.6
2018-04-15T09:13:11.257Z,63.6
2018-04-15T09:14:01.334Z,63.6
2018-04-15T09:14:51.939Z,63.6
2018-04-15T09:15:41.455Z,63.5
2018-04-15T09:16:32.114Z,63.5
2018-04-15T09:17:21.585Z,63.5
2018-04-15T09:18:12.556Z,63.5
2018-04-15T09:19:01.727Z,63.5
2018-04-15T09:19:51.824Z,63.5
2018-04-15T09:20:41.651Z,63.5
2018-04-15T09:21:32.169Z,63.5
2018-04-15T09:22:22.136Z,63.4
2018-04-15T09:23:12.240Z,63.5
2018-04-15T09:24:02.120Z,63.4
2018-04-15T09:24:51.883Z,63.4
2018-04-15T09:25:42.218Z,63.4
2018-04-15T09:26:32.920Z,63.4
2018-04-15T09:27:22.612Z,63.4
2018-04-15T09:28:12.421Z,63.4
2018-04-15T09:29:02.777Z,63.4
2018-04-15T09:29:52.801Z,63.4
2018-04-15T09:30:42.574Z,63.4
2018-04-15T09:31:32.746Z,63.4
2018-04-15T09:32:23.023Z,63.4
2018-04-15T09:33:12.498Z,63.4
2018-04-15T09:34:03.404Z,63.3
2018-04-15T09:34:53.185Z,63.4
2018-04-15T09:35:43.400Z,63.4
2018-04-15T09:36:33.627Z,63.4
2018-04-15T09:37:23.217Z,63.3
2018-04-15T09:38:12.868Z,63.3
2018-04-15T09:39:02.960Z,63.3
2018-04-15T09:39:53.616Z,63.3
2018-04-15T09:40:43.082Z,63.3
2018-04-15T09:41:33.993Z,63.3
2018-04-15T09:42:23.507Z,63.3
2018-04-15T09:43:14.143Z,63.3
2018-04-15T09:44:04.170Z,63.3
2018-04-15T09:44:53.959Z,63.3
2018-04-15T09:45:44.010Z,63.3
2018-04-15T09:46:34.097Z,63.3
2018-04-15T09:47:24.426Z,63.3
2018-04-15T09:48:14.510Z,63.3
2018-04-15T09:49:04.548Z,63.3
2018-04-15T09:49:54.081Z,63.2
2018-04-15T09:50:44.411Z,63.2
2018-04-15T09:51:34.773Z,63.2
2018-04-15T09:52:24.271Z,63.2
2018-04-15T09:53:14.316Z,63.2
2018-04-15T09:54:04.706Z,63.2
2018-04-15T09:54:55.019Z,63.2
2018-04-15T09:55:45.083Z,63.1
2018-04-15T09:56:35.220Z,63.2
2018-04-15T09:57:24.965Z,63.2
2018-04-15T09:58:14.422Z,63.1
2018-04-15T09:59:04.213Z,63.2
2018-04-15T09:59:54.885Z,63.1
2018-04-15T10:00:45.184Z,63.1
2018-04-15T10:01:35.265Z,63.1
2018-04-15T10:02:25.308Z,63.1
2018-04-15T10:03:15.412Z,63.1
2018-04-15T10:04:05.469Z,63.1
2018-04-15T10:04:55.525Z,63.1
2018-04-15T10:05:45.600Z,63.1
2018-04-15T10:06:35.210Z,63.1
2018-04-15T10:07:26.027Z,63.1
2018-04-15T10:08:16.088Z,63.1
2018-04-15T10:09:05.535Z,63.1
2018-04-15T10:09:55.910Z,63
2018-04-15T10:10:45.992Z,63.1
2018-04-15T10:11:36.297Z,63
2018-04-15T10:12:25.894Z,63
2018-04-15T10:13:16.454Z,63
2018-04-15T10:14:06.476Z,63
2018-04-15T10:14:56.573Z,63
2018-04-15T10:15:46.074Z,63
2018-04-15T10:16:36.159Z,63
2018-04-15T10:17:26.440Z,62.9
2018-04-15T10:18:16.543Z,62.9
2018-04-15T10:19:06.054Z,62.9
2018-04-15T10:19:56.675Z,62.9
2018-04-15T10:20:46.728Z,62.9
2018-04-15T10:21:36.787Z,62.9
2018-04-15T10:22:26.829Z,62.9
2018-04-15T10:23:16.628Z,62.9
2018-04-15T10:24:07.914Z,62.9
2018-04-15T10:24:57.324Z,62.9
2018-04-15T10:25:47.118Z,62.9
2018-04-15T10:26:36.929Z,62.9
2018-04-15T10:27:27.516Z,62.9
2018-04-15T10:28:17.306Z,62.9
2018-04-15T10:29:07.637Z,62.9
2018-04-15T10:29:57.722Z,62.9
2018-04-15T10:30:47.778Z,62.9
2018-04-15T10:31:37.576Z,62.8
2018-04-15T10:32:27.634Z,62.9
2018-04-15T10:33:17.961Z,62.8
2018-04-15T10:34:07.273Z,62.8
2018-04-15T10:34:57.045Z,62.8
2018-04-15T10:35:47.673Z,62.8
2018-04-15T10:36:37.731Z,62.8
2018-04-15T10:37:27.784Z,62.8
2018-04-15T10:38:17.574Z,62.8
2018-04-15T10:39:07.931Z,62.8
2018-04-15T10:39:58.003Z,62.8
2018-04-15T10:40:47.464Z,62.8
2018-04-15T10:41:38.607Z,62.8
2018-04-15T10:42:28.403Z,62.8
2018-04-15T10:43:18.736Z,62.8
2018-04-15T10:44:08.518Z,62.8
2018-04-15T10:44:58.049Z,62.8
2018-04-15T10:45:48.919Z,62.8
2018-04-15T10:46:39.009Z,62.8
2018-04-15T10:47:28.799Z,62.7
2018-04-15T10:48:19.113Z,62.7
2018-04-15T10:49:08.660Z,62.7
2018-04-15T10:49:58.373Z,62.7
2018-04-15T10:50:49.033Z,62.7
2018-04-15T10:51:38.837Z,62.7
2018-04-15T10:52:29.186Z,62.7
2018-04-15T10:53:19.486Z,62.6
2018-04-15T10:54:08.831Z,62.6
2018-04-15T10:54:59.631Z,62.6
2018-04-15T10:55:48.944Z,62.6
2018-04-15T10:56:39.511Z,62.6
2018-04-15T10:57:28.781Z,62.6
2018-04-15T10:58:19.349Z,62.6
2018-04-15T10:59:09.647Z,62.6
2018-04-15T10:59:59.984Z,62.6
2018-04-15T11:00:49.584Z,62.6
2018-04-15T11:01:39.903Z,62.6
2018-04-15T11:02:29.732Z,62.6
2018-04-15T11:03:19.224Z,62.6
2018-04-15T11:04:10.374Z,62.6
2018-04-15T11:05:00.074Z,62.6
2018-04-15T11:05:50.466Z,62.6
2018-04-15T11:06:40.271Z,62.6
2018-04-15T11:07:30.301Z,62.5
2018-04-15T11:08:20.378Z,62.5
2018-04-15T11:09:09.895Z,62.5
2018-04-15T11:10:00.801Z,62.5